sensor_id;sensor_type;location;lat;lon;timestamp;pressure;altitude;pressure_sealevel;temperature;humidity
31911;BME280;18457;52.432;16.914;2023-02-03T00:00:13;101146.23;;;1.26;85.13
31911;BME280;18457;52.432;16.914;2023-02-03T00:03:02;101146.36;;;1.24;85.06
31911;BME280;18457;52.432;16.914;2023-02-03T00:05:31;101142.78;;;1.23;85.07
31911;BME280;18457;52.432;16.914;2023-02-03T00:08:03;101137.90;;;1.20;85.17
31911;BME280;18457;52.432;16.914;2023-02-03T00:10:33;101138.09;;;1.21;85.09
31911;BME280;18457;52.432;16.914;2023-02-03T00:13:03;101136.02;;;1.23;84.99
31911;BME280;18457;52.432;16.914;2023-02-03T00:15:33;101141.46;;;1.27;84.96
31911;BME280;18457;52.432;16.914;2023-02-03T00:18:01;101138.79;;;1.27;84.89
31911;BME280;18457;52.432;16.914;2023-02-03T00:20:30;101133.49;;;1.22;85.31
31911;BME280;18457;52.432;16.914;2023-02-03T00:23:04;101133.06;;;1.26;85.22
31911;BME280;18457;52.432;16.914;2023-02-03T00:25:33;101130.50;;;1.30;85.05
31911;BME280;18457;52.432;16.914;2023-02-03T00:28:02;101117.96;;;1.34;84.84
31911;BME280;18457;52.432;16.914;2023-02-03T00:30:32;101125.58;;;1.33;84.85
31911;BME280;18457;52.432;16.914;2023-02-03T00:33:01;101120.65;;;1.35;84.83
31911;BME280;18457;52.432;16.914;2023-02-03T00:35:30;101115.52;;;1.37;84.82
31911;BME280;18457;52.432;16.914;2023-02-03T00:37:59;101115.61;;;1.40;84.47
31911;BME280;18457;52.432;16.914;2023-02-03T00:40:27;101113.61;;;1.31;84.77
31911;BME280;18457;52.432;16.914;2023-02-03T00:42:57;101109.51;;;1.31;85.42
31911;BME280;18457;52.432;16.914;2023-02-03T00:45:25;101108.56;;;1.35;84.96
31911;BME280;18457;52.432;16.914;2023-02-03T00:47:54;101100.99;;;1.39;84.63
31911;BME280;18457;52.432;16.914;2023-02-03T00:50:22;101091.02;;;1.39;84.42
31911;BME280;18457;52.432;16.914;2023-02-03T00:52:51;101087.41;;;1.29;85.41
31911;BME280;18457;52.432;16.914;2023-02-03T00:55:19;101081.70;;;1.36;85.25
31911;BME280;18457;52.432;16.914;2023-02-03T00:57:49;101072.58;;;1.42;84.55
31911;BME280;18457;52.432;16.914;2023-02-03T01:00:19;101063.46;;;1.40;84.66
31911;BME280;18457;52.432;16.914;2023-02-03T01:02:47;101060.23;;;1.38;84.76
31911;BME280;18457;52.432;16.914;2023-02-03T01:05:16;101054.70;;;1.38;84.70
31911;BME280;18457;52.432;16.914;2023-02-03T01:07:45;101052.02;;;1.38;84.89
31911;BME280;18457;52.432;16.914;2023-02-03T01:10:13;101054.55;;;1.39;85.08
31911;BME280;18457;52.432;16.914;2023-02-03T01:12:42;101036.56;;;1.39;85.22
31911;BME280;18457;52.432;16.914;2023-02-03T01:15:11;101028.40;;;1.40;85.31
31911;BME280;18457;52.432;16.914;2023-02-03T01:17:39;101019.00;;;1.41;85.27
31911;BME280;18457;52.432;16.914;2023-02-03T01:20:10;101009.96;;;1.43;85.22
31911;BME280;18457;52.432;16.914;2023-02-03T01:22:40;100999.48;;;1.44;85.13
31911;BME280;18457;52.432;16.914;2023-02-03T01:25:09;100997.35;;;1.44;85.39
31911;BME280;18457;52.432;16.914;2023-02-03T01:27:38;100987.03;;;1.44;85.47
31911;BME280;18457;52.432;16.914;2023-02-03T01:30:09;100985.11;;;1.46;85.33
31911;BME280;18457;52.432;16.914;2023-02-03T01:32:37;100981.94;;;1.47;85.28
31911;BME280;18457;52.432;16.914;2023-02-03T01:35:07;100973.36;;;1.46;85.31
31911;BME280;18457;52.432;16.914;2023-02-03T01:37:35;100962.29;;;1.44;85.43
31911;BME280;18457;52.432;16.914;2023-02-03T01:40:06;100967.23;;;1.42;85.64
31911;BME280;18457;52.432;16.914;2023-02-03T01:42:35;100964.36;;;1.42;85.46
31911;BME280;18457;52.432;16.914;2023-02-03T01:45:05;100974.23;;;1.45;85.55
31911;BME280;18457;52.432;16.914;2023-02-03T01:47:35;100976.38;;;1.46;85.54
31911;BME280;18457;52.432;16.914;2023-02-03T01:50:11;100982.05;;;1.45;85.48
31911;BME280;18457;52.432;16.914;2023-02-03T01:52:42;100990.11;;;1.47;85.47
31911;BME280;18457;52.432;16.914;2023-02-03T01:55:14;101003.69;;;1.49;85.46
31911;BME280;18457;52.432;16.914;2023-02-03T01:57:48;100990.15;;;1.41;85.48
31911;BME280;18457;52.432;16.914;2023-02-03T02:00:19;100984.20;;;1.37;86.06
31911;BME280;18457;52.432;16.914;2023-02-03T02:02:49;100982.02;;;1.43;85.65
31911;BME280;18457;52.432;16.914;2023-02-03T02:05:24;100979.38;;;1.44;85.70
31911;BME280;18457;52.432;16.914;2023-02-03T02:07:56;100972.61;;;1.36;85.86
31911;BME280;18457;52.432;16.914;2023-02-03T02:10:28;100967.77;;;1.35;86.05
31911;BME280;18457;52.432;16.914;2023-02-03T02:12:58;100967.45;;;1.28;86.07
31911;BME280;18457;52.432;16.914;2023-02-03T02:15:36;100957.80;;;1.27;86.18
31911;BME280;18457;52.432;16.914;2023-02-03T02:18:18;100947.64;;;1.25;86.15
31911;BME280;18457;52.432;16.914;2023-02-03T02:21:07;100937.84;;;1.25;86.14
31911;BME280;18457;52.432;16.914;2023-02-03T02:24:02;100932.78;;;1.29;86.23
31911;BME280;18457;52.432;16.914;2023-02-03T02:26:59;100925.65;;;1.29;86.05
31911;BME280;18457;52.432;16.914;2023-02-03T02:32:57;100906.24;;;1.37;85.57
31911;BME280;18457;52.432;16.914;2023-02-03T02:35:40;100895.59;;;1.38;85.36
31911;BME280;18457;52.432;16.914;2023-02-03T02:38:17;100882.02;;;1.27;85.72
31911;BME280;18457;52.432;16.914;2023-02-03T02:40:53;100874.44;;;1.31;85.90
31911;BME280;18457;52.432;16.914;2023-02-03T02:43:28;100864.08;;;1.21;86.01
31911;BME280;18457;52.432;16.914;2023-02-03T02:46:05;100859.39;;;1.18;86.63
31911;BME280;18457;52.432;16.914;2023-02-03T02:48:41;100859.98;;;1.29;86.23
31911;BME280;18457;52.432;16.914;2023-02-03T02:51:13;100859.80;;;1.28;86.16
31911;BME280;18457;52.432;16.914;2023-02-03T02:53:58;100863.55;;;1.29;86.42
31911;BME280;18457;52.432;16.914;2023-02-03T02:56:29;100859.00;;;1.33;86.33
31911;BME280;18457;52.432;16.914;2023-02-03T02:59:01;100858.21;;;1.38;86.02
31911;BME280;18457;52.432;16.914;2023-02-03T03:01:31;100856.89;;;1.43;85.70
31911;BME280;18457;52.432;16.914;2023-02-03T03:04:02;100856.05;;;1.46;85.59
31911;BME280;18457;52.432;16.914;2023-02-03T03:06:36;100851.88;;;1.50;85.37
31911;BME280;18457;52.432;16.914;2023-02-03T03:09:10;100845.84;;;1.51;85.47
31911;BME280;18457;52.432;16.914;2023-02-03T03:11:42;100843.20;;;1.53;85.37
31911;BME280;18457;52.432;16.914;2023-02-03T03:14:15;100838.46;;;1.56;85.12
31911;BME280;18457;52.432;16.914;2023-02-03T03:16:49;100825.52;;;1.59;85.02
31911;BME280;18457;52.432;16.914;2023-02-03T03:19:24;100812.16;;;1.58;85.22
31911;BME280;18457;52.432;16.914;2023-02-03T03:21:56;100808.64;;;1.60;84.83
31911;BME280;18457;52.432;16.914;2023-02-03T03:24:28;100807.38;;;1.61;84.42
31911;BME280;18457;52.432;16.914;2023-02-03T03:27:01;100803.50;;;1.63;84.65
31911;BME280;18457;52.432;16.914;2023-02-03T03:29:34;100801.86;;;1.60;84.80
31911;BME280;18457;52.432;16.914;2023-02-03T03:32:07;100792.61;;;1.61;85.25
31911;BME280;18457;52.432;16.914;2023-02-03T03:34:37;100793.33;;;1.61;85.24
31911;BME280;18457;52.432;16.914;2023-02-03T03:37:10;100783.37;;;1.61;85.17
31911;BME280;18457;52.432;16.914;2023-02-03T03:39:44;100781.37;;;1.59;85.10
31911;BME280;18457;52.432;16.914;2023-02-03T03:42:21;100779.80;;;1.61;84.91
31911;BME280;18457;52.432;16.914;2023-02-03T03:44:54;100777.89;;;1.63;84.61
31911;BME280;18457;52.432;16.914;2023-02-03T03:47:27;100780.77;;;1.65;84.29
31911;BME280;18457;52.432;16.914;2023-02-03T03:50:00;100769.48;;;1.63;84.24
31911;BME280;18457;52.432;16.914;2023-02-03T03:52:31;100762.23;;;1.64;84.05
31911;BME280;18457;52.432;16.914;2023-02-03T03:55:07;100744.49;;;1.58;84.03
31911;BME280;18457;52.432;16.914;2023-02-03T03:57:38;100746.76;;;1.64;84.02
31911;BME280;18457;52.432;16.914;2023-02-03T04:00:10;100736.95;;;1.64;83.94
31911;BME280;18457;52.432;16.914;2023-02-03T04:02:46;100738.71;;;1.64;84.03
31911;BME280;18457;52.432;16.914;2023-02-03T04:05:19;100738.88;;;1.63;84.03
31911;BME280;18457;52.432;16.914;2023-02-03T04:07:48;100737.98;;;1.63;84.25
31911;BME280;18457;52.432;16.914;2023-02-03T04:10:24;100729.66;;;1.66;84.16
31911;BME280;18457;52.432;16.914;2023-02-03T04:12:54;100723.28;;;1.67;84.19
31911;BME280;18457;52.432;16.914;2023-02-03T04:15:23;100714.36;;;1.66;84.55
31911;BME280;18457;52.432;16.914;2023-02-03T04:17:51;100712.21;;;1.65;84.19
31911;BME280;18457;52.432;16.914;2023-02-03T04:20:22;100705.67;;;1.67;83.98
31911;BME280;18457;52.432;16.914;2023-02-03T04:22:50;100704.42;;;1.68;83.96
31911;BME280;18457;52.432;16.914;2023-02-03T04:25:19;100702.80;;;1.67;83.84
31911;BME280;18457;52.432;16.914;2023-02-03T04:27:48;100700.70;;;1.69;83.95
31911;BME280;18457;52.432;16.914;2023-02-03T04:30:18;100698.93;;;1.69;83.97
31911;BME280;18457;52.432;16.914;2023-02-03T04:32:46;100690.04;;;1.70;84.14
31911;BME280;18457;52.432;16.914;2023-02-03T04:35:15;100682.73;;;1.70;84.10
31911;BME280;18457;52.432;16.914;2023-02-03T04:37:44;100678.15;;;1.72;84.06
31911;BME280;18457;52.432;16.914;2023-02-03T04:40:13;100669.25;;;1.72;84.09
31911;BME280;18457;52.432;16.914;2023-02-03T04:42:42;100661.39;;;1.71;84.08
31911;BME280;18457;52.432;16.914;2023-02-03T04:45:11;100656.77;;;1.72;84.32
31911;BME280;18457;52.432;16.914;2023-02-03T04:47:40;100647.17;;;1.73;84.30
31911;BME280;18457;52.432;16.914;2023-02-03T04:50:09;100645.22;;;1.73;84.38
31911;BME280;18457;52.432;16.914;2023-02-03T04:52:38;100635.08;;;1.74;84.43
31911;BME280;18457;52.432;16.914;2023-02-03T04:55:07;100630.45;;;1.74;84.41
31911;BME280;18457;52.432;16.914;2023-02-03T04:57:36;100621.06;;;1.77;84.39
31911;BME280;18457;52.432;16.914;2023-02-03T05:00:07;100619.84;;;1.79;84.20
31911;BME280;18457;52.432;16.914;2023-02-03T05:02:36;100620.41;;;1.81;83.84
31911;BME280;18457;52.432;16.914;2023-02-03T05:05:06;100610.98;;;1.82;83.68
31911;BME280;18457;52.432;16.914;2023-02-03T05:07:34;100608.84;;;1.82;83.69
31911;BME280;18457;52.432;16.914;2023-02-03T05:10:04;100604.98;;;1.86;83.70
31911;BME280;18457;52.432;16.914;2023-02-03T05:12:32;100605.89;;;1.87;83.74
31911;BME280;18457;52.432;16.914;2023-02-03T05:15:01;100601.27;;;1.88;83.71
31911;BME280;18457;52.432;16.914;2023-02-03T05:17:30;100599.51;;;1.90;83.57
31911;BME280;18457;52.432;16.914;2023-02-03T05:19:59;100592.37;;;1.88;83.82
31911;BME280;18457;52.432;16.914;2023-02-03T05:22:27;100586.52;;;1.90;84.04
31911;BME280;18457;52.432;16.914;2023-02-03T05:24:56;100576.66;;;1.87;84.50
31911;BME280;18457;52.432;16.914;2023-02-03T05:27:24;100571.75;;;1.90;84.66
31911;BME280;18457;52.432;16.914;2023-02-03T05:29:53;100563.00;;;1.90;85.11
31911;BME280;18457;52.432;16.914;2023-02-03T05:32:22;100559.27;;;1.91;85.50
31911;BME280;18457;52.432;16.914;2023-02-03T05:34:50;100554.45;;;1.91;86.02
31911;BME280;18457;52.432;16.914;2023-02-03T05:37:19;100554.27;;;1.90;86.97
31911;BME280;18457;52.432;16.914;2023-02-03T05:39:47;100548.73;;;1.89;87.53
31911;BME280;18457;52.432;16.914;2023-02-03T05:42:16;100537.17;;;1.89;87.98
31911;BME280;18457;52.432;16.914;2023-02-03T05:44:47;100529.89;;;1.91;88.20
31911;BME280;18457;52.432;16.914;2023-02-03T05:47:15;100522.42;;;1.92;88.51
31911;BME280;18457;52.432;16.914;2023-02-03T05:49:43;100517.98;;;1.93;88.65
31911;BME280;18457;52.432;16.914;2023-02-03T05:52:12;100512.65;;;1.93;88.93
31911;BME280;18457;52.432;16.914;2023-02-03T05:54:40;100506.38;;;1.90;89.21
31911;BME280;18457;52.432;16.914;2023-02-03T05:57:08;100509.25;;;1.94;89.59
31911;BME280;18457;52.432;16.914;2023-02-03T05:59:37;100505.16;;;1.93;89.93
31911;BME280;18457;52.432;16.914;2023-02-03T06:02:05;100501.27;;;1.94;90.28
31911;BME280;18457;52.432;16.914;2023-02-03T06:04:34;100496.81;;;1.95;90.51
31911;BME280;18457;52.432;16.914;2023-02-03T06:07:02;100495.59;;;1.96;90.91
31911;BME280;18457;52.432;16.914;2023-02-03T06:09:31;100491.49;;;1.98;91.24
31911;BME280;18457;52.432;16.914;2023-02-03T06:12:00;100493.13;;;1.99;91.46
31911;BME280;18457;52.432;16.914;2023-02-03T06:14:29;100488.32;;;1.99;91.62
31911;BME280;18457;52.432;16.914;2023-02-03T06:16:57;100488.51;;;2.01;91.94
31911;BME280;18457;52.432;16.914;2023-02-03T06:19:26;100483.16;;;2.02;92.05
31911;BME280;18457;52.432;16.914;2023-02-03T06:21:54;100477.99;;;2.01;92.45
31911;BME280;18457;52.432;16.914;2023-02-03T06:24:22;100465.38;;;2.03;92.60
31911;BME280;18457;52.432;16.914;2023-02-03T06:26:51;100460.93;;;2.04;92.66
31911;BME280;18457;52.432;16.914;2023-02-03T06:29:20;100448.13;;;2.06;92.91
31911;BME280;18457;52.432;16.914;2023-02-03T06:31:49;100448.67;;;2.06;92.98
31911;BME280;18457;52.432;16.914;2023-02-03T06:34:18;100440.83;;;2.05;93.18
31911;BME280;18457;52.432;16.914;2023-02-03T06:36:47;100428.70;;;2.22;96.78
31911;BME280;18457;52.432;16.914;2023-02-03T06:39:16;100421.52;;;2.18;94.27
31911;BME280;18457;52.432;16.914;2023-02-03T06:41:45;100415.81;;;2.17;93.67
31911;BME280;18457;52.432;16.914;2023-02-03T06:44:13;100408.88;;;2.18;93.65
31911;BME280;18457;52.432;16.914;2023-02-03T06:46:42;100399.96;;;2.17;93.89
31911;BME280;18457;52.432;16.914;2023-02-03T06:49:11;100393.52;;;2.15;94.39
31911;BME280;18457;52.432;16.914;2023-02-03T06:51:39;100383.20;;;2.17;94.38
31911;BME280;18457;52.432;16.914;2023-02-03T06:54:09;100370.53;;;2.15;94.75
31911;BME280;18457;52.432;16.914;2023-02-03T06:56:37;100365.39;;;2.17;94.78
31911;BME280;18457;52.432;16.914;2023-02-03T06:59:07;100360.41;;;2.19;94.77
31911;BME280;18457;52.432;16.914;2023-02-03T07:01:37;100349.40;;;2.22;94.88
31911;BME280;18457;52.432;16.914;2023-02-03T07:04:06;100343.52;;;2.22;95.12
31911;BME280;18457;52.432;16.914;2023-02-03T07:06:34;100334.96;;;2.22;95.31
31911;BME280;18457;52.432;16.914;2023-02-03T07:09:05;100319.48;;;2.24;95.37
31911;BME280;18457;52.432;16.914;2023-02-03T07:11:33;100315.02;;;2.24;95.79
31911;BME280;18457;52.432;16.914;2023-02-03T07:14:02;100308.44;;;2.23;96.12
31911;BME280;18457;52.432;16.914;2023-02-03T07:16:32;100295.95;;;2.23;96.34
31911;BME280;18457;52.432;16.914;2023-02-03T07:19:03;100288.67;;;2.26;96.41
31911;BME280;18457;52.432;16.914;2023-02-03T07:21:32;100277.84;;;2.30;96.41
31911;BME280;18457;52.432;16.914;2023-02-03T07:24:01;100265.72;;;2.32;96.71
31911;BME280;18457;52.432;16.914;2023-02-03T07:26:30;100251.64;;;2.31;96.93
31911;BME280;18457;52.432;16.914;2023-02-03T07:28:59;100242.19;;;2.31;97.03
31911;BME280;18457;52.432;16.914;2023-02-03T07:31:27;100232.23;;;2.35;97.16
31911;BME280;18457;52.432;16.914;2023-02-03T07:33:56;100232.60;;;2.36;97.20
31911;BME280;18457;52.432;16.914;2023-02-03T07:36:27;100230.44;;;2.34;97.47
31911;BME280;18457;52.432;16.914;2023-02-03T07:38:57;100222.63;;;2.37;97.42
31911;BME280;18457;52.432;16.914;2023-02-03T07:41:26;100223.54;;;2.41;97.28
31911;BME280;18457;52.432;16.914;2023-02-03T07:43:54;100216.60;;;2.43;97.26
31911;BME280;18457;52.432;16.914;2023-02-03T07:46:23;100201.46;;;2.46;97.15
31911;BME280;18457;52.432;16.914;2023-02-03T07:48:51;100201.29;;;2.47;97.27
31911;BME280;18457;52.432;16.914;2023-02-03T07:51:20;100194.68;;;2.45;97.40
31911;BME280;18457;52.432;16.914;2023-02-03T07:53:48;100180.80;;;2.47;97.46
31911;BME280;18457;52.432;16.914;2023-02-03T07:56:17;100172.59;;;2.47;97.75
31911;BME280;18457;52.432;16.914;2023-02-03T07:58:45;100168.14;;;2.49;97.94
31911;BME280;18457;52.432;16.914;2023-02-03T08:01:16;100155.65;;;2.48;98.06
31911;BME280;18457;52.432;16.914;2023-02-03T08:03:45;100140.84;;;2.42;98.33
31911;BME280;18457;52.432;16.914;2023-02-03T08:06:13;100143.36;;;2.48;98.27
31911;BME280;18457;52.432;16.914;2023-02-03T08:08:42;100131.42;;;2.47;98.47
31911;BME280;18457;52.432;16.914;2023-02-03T08:11:11;100126.08;;;2.48;98.54
31911;BME280;18457;52.432;16.914;2023-02-03T08:13:40;100123.05;;;2.52;98.35
31911;BME280;18457;52.432;16.914;2023-02-03T08:16:09;100120.39;;;2.56;98.05
31911;BME280;18457;52.432;16.914;2023-02-03T08:18:38;100109.87;;;2.55;98.05
31911;BME280;18457;52.432;16.914;2023-02-03T08:21:06;100107.38;;;2.59;97.90
31911;BME280;18457;52.432;16.914;2023-02-03T08:23:36;100098.64;;;2.57;97.92
31911;BME280;18457;52.432;16.914;2023-02-03T08:26:05;100094.20;;;2.59;97.87
31911;BME280;18457;52.432;16.914;2023-02-03T08:28:34;100085.63;;;2.57;97.77
31911;BME280;18457;52.432;16.914;2023-02-03T08:31:09;100075.46;;;2.55;97.83
31911;BME280;18457;52.432;16.914;2023-02-03T08:33:38;100067.80;;;2.56;98.03
31911;BME280;18457;52.432;16.914;2023-02-03T08:36:08;100053.90;;;2.57;98.00
31911;BME280;18457;52.432;16.914;2023-02-03T08:38:39;100050.88;;;2.59;97.95
31911;BME280;18457;52.432;16.914;2023-02-03T08:41:13;100036.61;;;2.60;97.83
31911;BME280;18457;52.432;16.914;2023-02-03T08:43:43;100036.08;;;2.61;97.71
31911;BME280;18457;52.432;16.914;2023-02-03T08:46:12;100023.95;;;2.62;97.59
31911;BME280;18457;52.432;16.914;2023-02-03T08:48:41;100017.18;;;2.63;97.39
31911;BME280;18457;52.432;16.914;2023-02-03T08:51:14;100012.90;;;2.64;97.23
31911;BME280;18457;52.432;16.914;2023-02-03T08:53:44;100005.41;;;2.63;97.32
31911;BME280;18457;52.432;16.914;2023-02-03T08:56:13;99999.70;;;2.60;97.34
31911;BME280;18457;52.432;16.914;2023-02-03T08:58:41;99995.77;;;2.62;97.44
31911;BME280;18457;52.432;16.914;2023-02-03T09:01:12;99990.25;;;2.62;97.45
31911;BME280;18457;52.432;16.914;2023-02-03T09:03:41;99972.96;;;2.63;97.35
31911;BME280;18457;52.432;16.914;2023-02-03T09:06:10;99967.79;;;2.58;97.71
31911;BME280;18457;52.432;16.914;2023-02-03T09:08:40;99963.33;;;2.59;97.76
31911;BME280;18457;52.432;16.914;2023-02-03T09:11:09;99957.27;;;2.63;97.76
31911;BME280;18457;52.432;16.914;2023-02-03T09:13:39;99960.13;;;2.66;97.76
31911;BME280;18457;52.432;16.914;2023-02-03T09:16:10;99948.00;;;2.70;97.55
31911;BME280;18457;52.432;16.914;2023-02-03T09:18:39;99938.38;;;2.70;97.37
31911;BME280;18457;52.432;16.914;2023-02-03T09:21:09;99931.60;;;2.70;97.51
31911;BME280;18457;52.432;16.914;2023-02-03T09:23:48;99922.33;;;2.69;97.76
31911;BME280;18457;52.432;16.914;2023-02-03T09:26:17;99901.66;;;2.72;97.70
31911;BME280;18457;52.432;16.914;2023-02-03T09:28:46;99890.94;;;2.72;97.76
31911;BME280;18457;52.432;16.914;2023-02-03T09:31:16;99890.59;;;2.71;97.97
31911;BME280;18457;52.432;16.914;2023-02-03T09:33:45;99867.40;;;2.74;97.93
31911;BME280;18457;52.432;16.914;2023-02-03T09:36:14;99854.73;;;2.76;97.93
31911;BME280;18457;52.432;16.914;2023-02-03T09:38:43;99843.86;;;2.78;98.02
31911;BME280;18457;52.432;16.914;2023-02-03T09:41:21;99833.35;;;2.79;98.28
31911;BME280;18457;52.432;16.914;2023-02-03T09:43:57;99834.05;;;2.82;98.43
31911;BME280;18457;52.432;16.914;2023-02-03T09:46:37;99830.83;;;2.84;98.62
31911;BME280;18457;52.432;16.914;2023-02-03T09:49:13;99817.45;;;2.84;98.75
31911;BME280;18457;52.432;16.914;2023-02-03T09:51:48;99819.60;;;2.85;98.88
31911;BME280;18457;52.432;16.914;2023-02-03T09:54:22;99800.69;;;2.84;98.86
31911;BME280;18457;52.432;16.914;2023-02-03T09:56:54;99776.08;;;2.84;98.93
31911;BME280;18457;52.432;16.914;2023-02-03T09:59:22;99763.94;;;2.86;98.93
31911;BME280;18457;52.432;16.914;2023-02-03T10:01:56;99758.05;;;2.86;99.09
31911;BME280;18457;52.432;16.914;2023-02-03T10:04:33;99758.96;;;2.82;99.44
31911;BME280;18457;52.432;16.914;2023-02-03T10:07:11;99750.58;;;2.83;99.61
31911;BME280;18457;52.432;16.914;2023-02-03T10:09:59;99737.38;;;2.85;99.65
31911;BME280;18457;52.432;16.914;2023-02-03T10:12:57;99724.35;;;2.85;99.61
31911;BME280;18457;52.432;16.914;2023-02-03T10:15:44;99710.44;;;2.86;99.59
31911;BME280;18457;52.432;16.914;2023-02-03T10:18:18;99689.38;;;2.89;99.67
31911;BME280;18457;52.432;16.914;2023-02-03T10:20:51;99668.88;;;2.86;99.90
31911;BME280;18457;52.432;16.914;2023-02-03T10:23:28;99665.31;;;2.88;100.00
31911;BME280;18457;52.432;16.914;2023-02-03T10:25:59;99649.07;;;2.90;99.96
31911;BME280;18457;52.432;16.914;2023-02-03T10:28:31;99642.62;;;2.93;100.00
31911;BME280;18457;52.432;16.914;2023-02-03T10:31:07;99629.43;;;2.93;100.00
31911;BME280;18457;52.432;16.914;2023-02-03T10:33:41;99614.61;;;2.95;100.00
31911;BME280;18457;52.432;16.914;2023-02-03T10:36:16;99607.10;;;2.99;100.00
31911;BME280;18457;52.432;16.914;2023-02-03T10:38:52;99593.52;;;3.01;100.00
31911;BME280;18457;52.432;16.914;2023-02-03T10:41:31;99582.83;;;3.00;100.00
31911;BME280;18457;52.432;16.914;2023-02-03T10:44:03;99582.27;;;3.04;100.00
31911;BME280;18457;52.432;16.914;2023-02-03T10:46:34;99570.83;;;3.07;100.00
31911;BME280;18457;52.432;16.914;2023-02-03T10:49:03;99558.69;;;3.08;100.00
31911;BME280;18457;52.432;16.914;2023-02-03T10:51:37;99552.92;;;3.14;100.00
31911;BME280;18457;52.432;16.914;2023-02-03T10:54:26;99540.41;;;3.17;100.00
31911;BME280;18457;52.432;16.914;2023-02-03T10:57:00;99528.42;;;3.20;100.00
31911;BME280;18457;52.432;16.914;2023-02-03T10:59:32;99518.40;;;3.24;100.00
31911;BME280;18457;52.432;16.914;2023-02-03T11:02:07;99513.74;;;3.27;100.00
31911;BME280;18457;52.432;16.914;2023-02-03T11:04:36;99504.96;;;3.30;100.00
31911;BME280;18457;52.432;16.914;2023-02-03T11:07:06;99496.73;;;3.33;100.00
31911;BME280;18457;52.432;16.914;2023-02-03T11:09:36;99486.70;;;3.36;100.00
31911;BME280;18457;52.432;16.914;2023-02-03T11:12:12;99475.62;;;3.37;100.00
31911;BME280;18457;52.432;16.914;2023-02-03T11:14:42;99472.36;;;3.41;100.00
31911;BME280;18457;52.432;16.914;2023-02-03T11:17:16;99468.94;;;3.44;100.00
31911;BME280;18457;52.432;16.914;2023-02-03T11:19:46;99459.09;;;3.48;100.00
31911;BME280;18457;52.432;16.914;2023-02-03T11:22:27;99458.20;;;3.48;100.00
31911;BME280;18457;52.432;16.914;2023-02-03T11:24:58;99444.42;;;3.50;100.00
31911;BME280;18457;52.432;16.914;2023-02-03T11:27:29;99441.38;;;3.51;100.00
31911;BME280;18457;52.432;16.914;2023-02-03T11:30:12;99427.51;;;3.46;100.00
31911;BME280;18457;52.432;16.914;2023-02-03T11:32:43;99413.67;;;3.53;100.00
31911;BME280;18457;52.432;16.914;2023-02-03T11:35:17;99407.89;;;3.59;100.00
31911;BME280;18457;52.432;16.914;2023-02-03T11:37:47;99404.77;;;3.66;100.00
31911;BME280;18457;52.432;16.914;2023-02-03T11:40:29;99397.02;;;3.71;100.00
31911;BME280;18457;52.432;16.914;2023-02-03T11:43:14;99392.80;;;3.80;100.00
31911;BME280;18457;52.432;16.914;2023-02-03T11:45:44;99386.48;;;3.85;100.00
31911;BME280;18457;52.432;16.914;2023-02-03T11:48:21;99383.73;;;3.91;100.00
31911;BME280;18457;52.432;16.914;2023-02-03T11:50:59;99379.02;;;3.95;100.00
31911;BME280;18457;52.432;16.914;2023-02-03T11:53:38;99371.12;;;3.98;100.00
31911;BME280;18457;52.432;16.914;2023-02-03T11:56:33;99367.49;;;4.02;100.00
31911;BME280;18457;52.432;16.914;2023-02-03T11:59:18;99362.09;;;4.05;100.00
31911;BME280;18457;52.432;16.914;2023-02-03T12:05:22;99356.34;;;4.17;100.00
31911;BME280;18457;52.432;16.914;2023-02-03T12:08:03;99353.29;;;4.20;100.00
31911;BME280;18457;52.432;16.914;2023-02-03T12:10:42;99349.64;;;4.24;100.00
31911;BME280;18457;52.432;16.914;2023-02-03T12:13:28;99347.06;;;4.28;100.00
31911;BME280;18457;52.432;16.914;2023-02-03T12:16:15;99344.12;;;4.34;100.00
31911;BME280;18457;52.432;16.914;2023-02-03T12:18:57;99340.63;;;4.39;100.00
31911;BME280;18457;52.432;16.914;2023-02-03T12:21:43;99341.11;;;4.54;100.00
31911;BME280;18457;52.432;16.914;2023-02-03T12:24:21;99340.05;;;4.73;100.00
31911;BME280;18457;52.432;16.914;2023-02-03T12:27:02;99333.39;;;4.85;100.00
31911;BME280;18457;52.432;16.914;2023-02-03T12:29:40;99331.16;;;4.98;100.00
31911;BME280;18457;52.432;16.914;2023-02-03T12:32:18;99334.95;;;5.07;100.00
31911;BME280;18457;52.432;16.914;2023-02-03T12:34:54;99322.15;;;5.20;100.00
31911;BME280;18457;52.432;16.914;2023-02-03T12:37:27;99321.25;;;5.30;100.00
31911;BME280;18457;52.432;16.914;2023-02-03T12:40:01;99313.92;;;5.38;100.00
31911;BME280;18457;52.432;16.914;2023-02-03T12:42:33;99305.02;;;5.44;100.00
31911;BME280;18457;52.432;16.914;2023-02-03T12:45:08;99310.42;;;5.50;100.00
31911;BME280;18457;52.432;16.914;2023-02-03T12:47:41;99314.69;;;5.52;100.00
31911;BME280;18457;52.432;16.914;2023-02-03T12:50:17;99318.02;;;5.55;100.00
31911;BME280;18457;52.432;16.914;2023-02-03T12:52:51;99322.10;;;5.57;100.00
31911;BME280;18457;52.432;16.914;2023-02-03T12:55:27;99331.34;;;5.60;100.00
31911;BME280;18457;52.432;16.914;2023-02-03T12:58:01;99336.66;;;5.63;100.00
31911;BME280;18457;52.432;16.914;2023-02-03T13:00:36;99342.98;;;5.69;100.00
31911;BME280;18457;52.432;16.914;2023-02-03T13:03:15;99339.97;;;5.75;100.00
31911;BME280;18457;52.432;16.914;2023-02-03T13:05:50;99336.25;;;5.82;100.00
31911;BME280;18457;52.432;16.914;2023-02-03T13:08:28;99337.95;;;5.87;100.00
31911;BME280;18457;52.432;16.914;2023-02-03T13:11:08;99343.05;;;5.91;100.00
31911;BME280;18457;52.432;16.914;2023-02-03T13:13:46;99344.80;;;5.93;100.00
31911;BME280;18457;52.432;16.914;2023-02-03T13:16:17;99342.81;;;5.93;100.00
31911;BME280;18457;52.432;16.914;2023-02-03T13:18:52;99346.20;;;5.94;100.00
31911;BME280;18457;52.432;16.914;2023-02-03T13:21:22;99353.98;;;5.91;100.00